sensor_id;sensor_type;location;lat;lon;timestamp;pressure;altitude;pressure_sealevel;temperature;humidity
62978;BME280;49073;42.352;23.808;2022-10-13T00:01:49;95517.09;;;8.48;93.06
62978;BME280;49073;42.352;23.808;2022-10-13T00:04:49;95520.53;;;8.57;91.31
62978;BME280;49073;42.352;23.808;2022-10-13T00:07:50;95527.72;;;8.48;90.83
62978;BME280;49073;42.352;23.808;2022-10-13T00:10:51;95525.22;;;8.42;92.33
62978;BME280;49073;42.352;23.808;2022-10-13T00:13:54;95519.47;;;8.49;92.70
62978;BME280;49073;42.352;23.808;2022-10-13T00:16:55;95519.47;;;8.49;91.72
62978;BME280;49073;42.352;23.808;2022-10-13T00:19:55;95517.41;;;8.46;92.74
62978;BME280;49073;42.352;23.808;2022-10-13T00:22:56;95517.88;;;8.48;92.71
62978;BME280;49073;42.352;23.808;2022-10-13T00:25:56;95503.69;;;8.44;92.98
62978;BME280;49073;42.352;23.808;2022-10-13T00:28:57;95506.63;;;8.42;93.32
62978;BME280;49073;42.352;23.808;2022-10-13T00:31:57;95517.44;;;8.55;92.72
62978;BME280;49073;42.352;23.808;2022-10-13T00:34:58;95510.28;;;8.20;91.59
62978;BME280;49073;42.352;23.808;2022-10-13T00:37:58;95496.38;;;8.23;90.97
62978;BME280;49073;42.352;23.808;2022-10-13T00:40:59;95499.09;;;8.14;90.28
62978;BME280;49073;42.352;23.808;2022-10-13T00:44:04;95485.06;;;8.05;91.19
62978;BME280;49073;42.352;23.808;2022-10-13T00:47:05;95491.75;;;8.03;91.50
62978;BME280;49073;42.352;23.808;2022-10-13T00:50:09;95479.75;;;8.05;91.15
62978;BME280;49073;42.352;23.808;2022-10-13T00:53:10;95477.22;;;8.09;90.31
62978;BME280;49073;42.352;23.808;2022-10-13T00:56:12;95475.50;;;8.13;89.06
62978;BME280;49073;42.352;23.808;2022-10-13T00:59:20;95470.88;;;7.92;88.28
62978;BME280;49073;42.352;23.808;2022-10-13T01:02:23;95478.03;;;7.92;88.27
62978;BME280;49073;42.352;23.808;2022-10-13T01:05:27;95479.75;;;7.96;86.96
62978;BME280;49073;42.352;23.808;2022-10-13T01:08:29;95479.34;;;7.77;86.25
62978;BME280;49073;42.352;23.808;2022-10-13T01:21:32;95465.91;;;7.73;85.01
62978;BME280;49073;42.352;23.808;2022-10-13T01:32:05;95471.72;;;7.57;83.74
62978;BME280;49073;42.352;23.808;2022-10-13T01:34:43;95467.97;;;7.59;83.82
62978;BME280;49073;42.352;23.808;2022-10-13T01:44:29;95469.84;;;7.40;84.48
62978;BME280;49073;42.352;23.808;2022-10-13T01:47:32;95464.84;;;7.39;84.43
62978;BME280;49073;42.352;23.808;2022-10-13T01:50:35;95466.41;;;7.40;83.67
62978;BME280;49073;42.352;23.808;2022-10-13T01:53:36;95470.75;;;7.36;83.41
62978;BME280;49073;42.352;23.808;2022-10-13T01:56:37;95462.97;;;7.39;82.95
62978;BME280;49073;42.352;23.808;2022-10-13T01:59:38;95463.59;;;7.27;84.46
62978;BME280;49073;42.352;23.808;2022-10-13T02:06:21;95461.56;;;7.33;86.06
62978;BME280;49073;42.352;23.808;2022-10-13T02:12:52;95454.84;;;7.36;87.64
62978;BME280;49073;42.352;23.808;2022-10-13T02:15:58;95463.31;;;7.38;87.07
62978;BME280;49073;42.352;23.808;2022-10-13T02:19:02;95461.88;;;7.40;86.21
62978;BME280;49073;42.352;23.808;2022-10-13T02:22:05;95463.28;;;7.47;85.73
62978;BME280;49073;42.352;23.808;2022-10-13T02:25:07;95457.66;;;7.39;84.48
62978;BME280;49073;42.352;23.808;2022-10-13T02:28:08;95460.19;;;7.27;85.79
62978;BME280;49073;42.352;23.808;2022-10-13T02:31:10;95460.00;;;7.06;86.20
62978;BME280;49073;42.352;23.808;2022-10-13T02:34:11;95451.44;;;7.09;87.39
62978;BME280;49073;42.352;23.808;2022-10-13T02:37:12;95447.03;;;7.04;87.55
62978;BME280;49073;42.352;23.808;2022-10-13T02:40:13;95445.97;;;7.05;88.66
62978;BME280;49073;42.352;23.808;2022-10-13T02:43:13;95446.59;;;7.02;87.65
62978;BME280;49073;42.352;23.808;2022-10-13T02:46:14;95441.91;;;6.99;88.16
62978;BME280;49073;42.352;23.808;2022-10-13T02:49:14;95451.88;;;7.02;88.26
62978;BME280;49073;42.352;23.808;2022-10-13T02:52:15;95446.47;;;7.07;87.92
62978;BME280;49073;42.352;23.808;2022-10-13T02:55:16;95452.81;;;7.06;87.58
62978;BME280;49073;42.352;23.808;2022-10-13T02:58:17;95452.34;;;6.95;87.73
62978;BME280;49073;42.352;23.808;2022-10-13T03:01:17;95450.19;;;6.97;88.30
62978;BME280;49073;42.352;23.808;2022-10-13T03:04:18;95439.41;;;6.94;87.93
62978;BME280;49073;42.352;23.808;2022-10-13T03:07:18;95441.28;;;7.02;87.76
62978;BME280;49073;42.352;23.808;2022-10-13T03:10:19;95437.69;;;6.89;88.15
62978;BME280;49073;42.352;23.808;2022-10-13T03:13:20;95438.03;;;6.96;88.02
62978;BME280;49073;42.352;23.808;2022-10-13T03:16:21;95439.88;;;6.87;88.57
62978;BME280;49073;42.352;23.808;2022-10-13T03:19:23;95430.06;;;6.88;89.13
62978;BME280;49073;42.352;23.808;2022-10-13T03:22:24;95433.66;;;7.01;89.06
62978;BME280;49073;42.352;23.808;2022-10-13T03:25:24;95428.19;;;6.88;89.68
62978;BME280;49073;42.352;23.808;2022-10-13T03:28:25;95434.09;;;6.94;89.86
62978;BME280;49073;42.352;23.808;2022-10-13T03:31:26;95424.63;;;7.02;89.91
62978;BME280;49073;42.352;23.808;2022-10-13T03:34:27;95424.78;;;6.96;89.84
62978;BME280;49073;42.352;23.808;2022-10-13T03:37:28;95429.28;;;7.05;90.01
62978;BME280;49073;42.352;23.808;2022-10-13T03:40:29;95431.94;;;6.96;90.81
62978;BME280;49073;42.352;23.808;2022-10-13T03:43:30;95424.47;;;6.89;91.69
62978;BME280;49073;42.352;23.808;2022-10-13T03:46:30;95423.97;;;6.78;92.14
62978;BME280;49073;42.352;23.808;2022-10-13T03:49:31;95439.25;;;6.81;92.60
62978;BME280;49073;42.352;23.808;2022-10-13T03:52:32;95434.13;;;6.85;93.03
62978;BME280;49073;42.352;23.808;2022-10-13T03:55:32;95435.84;;;6.98;92.24
62978;BME280;49073;42.352;23.808;2022-10-13T03:58:33;95437.88;;;7.02;91.24
62978;BME280;49073;42.352;23.808;2022-10-13T04:01:35;95439.56;;;7.06;90.18
62978;BME280;49073;42.352;23.808;2022-10-13T04:04:36;95441.75;;;7.04;88.91
62978;BME280;49073;42.352;23.808;2022-10-13T04:07:37;95438.34;;;7.04;89.46
62978;BME280;49073;42.352;23.808;2022-10-13T04:10:38;95436.78;;;7.03;90.30
62978;BME280;49073;42.352;23.808;2022-10-13T04:13:39;95433.19;;;7.07;90.61
62978;BME280;49073;42.352;23.808;2022-10-13T04:16:40;95420.88;;;7.11;90.29
62978;BME280;49073;42.352;23.808;2022-10-13T04:19:40;95435.06;;;7.16;90.31
62978;BME280;49073;42.352;23.808;2022-10-13T04:22:41;95428.69;;;7.17;90.27
62978;BME280;49073;42.352;23.808;2022-10-13T04:25:41;95425.88;;;7.22;90.15
62978;BME280;49073;42.352;23.808;2022-10-13T04:28:42;95431.03;;;7.09;90.19
62978;BME280;49073;42.352;23.808;2022-10-13T04:31:43;95435.69;;;7.12;90.15
62978;BME280;49073;42.352;23.808;2022-10-13T04:34:44;95436.91;;;7.06;90.00
62978;BME280;49073;42.352;23.808;2022-10-13T04:37:44;95425.09;;;7.12;89.67
62978;BME280;49073;42.352;23.808;2022-10-13T04:40:45;95431.50;;;7.11;88.64
62978;BME280;49073;42.352;23.808;2022-10-13T04:43:49;95435.53;;;6.91;86.20
62978;BME280;49073;42.352;23.808;2022-10-13T04:46:51;95433.94;;;6.81;87.43
62978;BME280;49073;42.352;23.808;2022-10-13T04:49:52;95430.81;;;6.79;87.64
62978;BME280;49073;42.352;23.808;2022-10-13T04:52:52;95422.13;;;6.79;88.02
62978;BME280;49073;42.352;23.808;2022-10-13T04:55:54;95423.81;;;6.83;87.22
62978;BME280;49073;42.352;23.808;2022-10-13T04:58:54;95427.41;;;6.88;86.59
62978;BME280;49073;42.352;23.808;2022-10-13T05:01:55;95427.41;;;6.88;86.49
62978;BME280;49073;42.352;23.808;2022-10-13T05:04:56;95426.63;;;6.96;86.29
62978;BME280;49073;42.352;23.808;2022-10-13T05:07:56;95428.19;;;6.97;86.61
62978;BME280;49073;42.352;23.808;2022-10-13T05:11:00;95433.03;;;6.95;86.82
62978;BME280;49073;42.352;23.808;2022-10-13T05:14:01;95429.28;;;6.96;87.37
62978;BME280;49073;42.352;23.808;2022-10-13T05:17:02;95433.03;;;7.12;87.80
62978;BME280;49073;42.352;23.808;2022-10-13T05:20:02;95431.50;;;7.11;88.11
62978;BME280;49073;42.352;23.808;2022-10-13T05:23:03;95435.22;;;7.10;88.22
62978;BME280;49073;42.352;23.808;2022-10-13T05:26:06;95442.56;;;7.13;88.66
62978;BME280;49073;42.352;23.808;2022-10-13T05:29:08;95441.31;;;7.20;89.21
62978;BME280;49073;42.352;23.808;2022-10-13T05:32:08;95438.19;;;7.35;89.28
62978;BME280;49073;42.352;23.808;2022-10-13T05:35:09;95450.03;;;7.29;89.24
62978;BME280;49073;42.352;23.808;2022-10-13T05:38:09;95456.41;;;7.19;89.56
62978;BME280;49073;42.352;23.808;2022-10-13T05:41:12;95454.41;;;7.16;90.16
62978;BME280;49073;42.352;23.808;2022-10-13T05:44:13;95464.38;;;7.19;90.98
62978;BME280;49073;42.352;23.808;2022-10-13T05:47:13;95456.28;;;7.16;91.53
62978;BME280;49073;42.352;23.808;2022-10-13T05:50:14;95448.16;;;7.21;91.69
62978;BME280;49073;42.352;23.808;2022-10-13T05:53:15;95456.91;;;7.30;91.60
62978;BME280;49073;42.352;23.808;2022-10-13T05:56:18;95449.56;;;7.27;92.17
62978;BME280;49073;42.352;23.808;2022-10-13T05:59:21;95456.72;;;7.26;92.46
62978;BME280;49073;42.352;23.808;2022-10-13T06:02:27;95457.22;;;7.20;93.02
62978;BME280;49073;42.352;23.808;2022-10-13T06:05:33;95460.59;;;6.94;93.69
62978;BME280;49073;42.352;23.808;2022-10-13T06:08:36;95463.72;;;6.96;94.45
62978;BME280;49073;42.352;23.808;2022-10-13T06:11:37;95459.56;;;7.12;94.69
62978;BME280;49073;42.352;23.808;2022-10-13T06:14:38;95467.50;;;7.21;94.92
62978;BME280;49073;42.352;23.808;2022-10-13T06:17:38;95469.69;;;7.46;94.31
62978;BME280;49073;42.352;23.808;2022-10-13T06:20:39;95470.31;;;7.42;94.06
62978;BME280;49073;42.352;23.808;2022-10-13T06:23:39;95475.16;;;7.49;93.94
62978;BME280;49073;42.352;23.808;2022-10-13T06:26:41;95469.66;;;7.63;93.84
62978;BME280;49073;42.352;23.808;2022-10-13T06:29:42;95470.63;;;7.67;94.19
62978;BME280;49073;42.352;23.808;2022-10-13T06:32:42;95455.91;;;7.79;94.24
62978;BME280;49073;42.352;23.808;2022-10-13T06:35:43;95469.66;;;7.81;95.21
62978;BME280;49073;42.352;23.808;2022-10-13T06:38:43;95464.69;;;7.70;95.88
62978;BME280;49073;42.352;23.808;2022-10-13T06:41:44;95455.72;;;7.93;96.41
62978;BME280;49073;42.352;23.808;2022-10-13T06:44:44;95464.84;;;8.22;96.50
62978;BME280;49073;42.352;23.808;2022-10-13T06:47:45;95461.22;;;8.35;96.56
62978;BME280;49073;42.352;23.808;2022-10-13T06:50:46;95462.47;;;8.29;97.17
62978;BME280;49073;42.352;23.808;2022-10-13T06:53:46;95464.78;;;8.39;97.78
62978;BME280;49073;42.352;23.808;2022-10-13T06:56:47;95459.94;;;8.41;97.43
62978;BME280;49073;42.352;23.808;2022-10-13T06:59:47;95469.78;;;8.41;96.92
62978;BME280;49073;42.352;23.808;2022-10-13T07:02:49;95467.44;;;8.39;96.56
62978;BME280;49073;42.352;23.808;2022-10-13T07:05:51;95457.09;;;8.55;96.45
62978;BME280;49073;42.352;23.808;2022-10-13T07:08:51;95453.06;;;8.49;96.21
62978;BME280;49073;42.352;23.808;2022-10-13T07:11:52;95454.63;;;8.50;96.86
62978;BME280;49073;42.352;23.808;2022-10-13T07:14:52;95452.78;;;8.72;96.42
62978;BME280;49073;42.352;23.808;2022-10-13T07:17:53;95447.22;;;8.86;96.64
62978;BME280;49073;42.352;23.808;2022-10-13T07:20:57;95457.28;;;9.01;96.38
62978;BME280;49073;42.352;23.808;2022-10-13T07:23:58;95459.69;;;9.15;94.93
62978;BME280;49073;42.352;23.808;2022-10-13T07:26:58;95447.25;;;9.28;95.34
62978;BME280;49073;42.352;23.808;2022-10-13T07:30:00;95451.97;;;9.44;95.37
62978;BME280;49073;42.352;23.808;2022-10-13T07:33:00;95439.50;;;9.57;95.71
62978;BME280;49073;42.352;23.808;2022-10-13T07:36:00;95427.44;;;9.72;94.55
62978;BME280;49073;42.352;23.808;2022-10-13T07:39:02;95435.16;;;9.98;94.43
62978;BME280;49073;42.352;23.808;2022-10-13T07:42:03;95435.22;;;10.11;94.42
62978;BME280;49073;42.352;23.808;2022-10-13T07:45:04;95422.56;;;10.20;92.84
62978;BME280;49073;42.352;23.808;2022-10-13T07:48:05;95420.03;;;10.36;92.50
62978;BME280;49073;42.352;23.808;2022-10-13T07:51:08;95419.59;;;10.59;91.96
62978;BME280;49073;42.352;23.808;2022-10-13T07:54:09;95420.69;;;10.70;91.36
62978;BME280;49073;42.352;23.808;2022-10-13T07:57:09;95417.25;;;10.82;90.96
62978;BME280;49073;42.352;23.808;2022-10-13T08:00:10;95426.75;;;10.96;90.55
62978;BME280;49073;42.352;23.808;2022-10-13T08:03:11;95417.25;;;10.82;89.94
62978;BME280;49073;42.352;23.808;2022-10-13T08:06:11;95421.13;;;10.72;89.59
62978;BME280;49073;42.352;23.808;2022-10-13T08:09:12;95416.47;;;10.69;88.96
62978;BME280;49073;42.352;23.808;2022-10-13T08:12:12;95421.72;;;10.66;89.00
62978;BME280;49073;42.352;23.808;2022-10-13T08:15:14;95413.56;;;10.74;88.92
62978;BME280;49073;42.352;23.808;2022-10-13T08:18:15;95419.47;;;10.80;87.98
62978;BME280;49073;42.352;23.808;2022-10-13T08:21:17;95418.88;;;10.87;87.33
62978;BME280;49073;42.352;23.808;2022-10-13T08:24:18;95418.00;;;10.83;87.61
62978;BME280;49073;42.352;23.808;2022-10-13T08:27:23;95417.56;;;10.93;87.39
62978;BME280;49073;42.352;23.808;2022-10-13T08:30:24;95409.97;;;11.08;86.45
62978;BME280;49073;42.352;23.808;2022-10-13T08:33:25;95412.16;;;11.18;86.37
62978;BME280;49073;42.352;23.808;2022-10-13T08:36:26;95418.91;;;11.28;85.08
62978;BME280;49073;42.352;23.808;2022-10-13T08:39:27;95413.56;;;11.28;83.64
62978;BME280;49073;42.352;23.808;2022-10-13T08:42:28;95403.72;;;11.44;83.94
62978;BME280;49073;42.352;23.808;2022-10-13T08:45:29;95407.31;;;11.36;81.99
62978;BME280;49073;42.352;23.808;2022-10-13T08:48:32;95411.22;;;11.55;81.52
62978;BME280;49073;42.352;23.808;2022-10-13T08:51:35;95406.50;;;11.64;81.30
62978;BME280;49073;42.352;23.808;2022-10-13T08:54:37;95405.56;;;11.72;81.63
62978;BME280;49073;42.352;23.808;2022-10-13T08:57:37;95405.84;;;11.83;81.29
62978;BME280;49073;42.352;23.808;2022-10-13T09:00:38;95406.41;;;11.89;81.18
62978;BME280;49073;42.352;23.808;2022-10-13T09:03:51;95401.75;;;12.02;80.75
62978;BME280;49073;42.352;23.808;2022-10-13T09:07:01;95396.94;;;12.07;80.05
62978;BME280;49073;42.352;23.808;2022-10-13T09:10:04;95395.22;;;12.31;79.42
62978;BME280;49073;42.352;23.808;2022-10-13T09:13:07;95398.13;;;12.58;78.14
62978;BME280;49073;42.352;23.808;2022-10-13T09:16:08;95398.16;;;12.78;77.40
62978;BME280;49073;42.352;23.808;2022-10-13T09:19:31;95397.13;;;13.02;77.92
62978;BME280;49073;42.352;23.808;2022-10-13T09:22:40;95395.06;;;13.31;76.28
62978;BME280;49073;42.352;23.808;2022-10-13T09:25:46;95378.38;;;13.58;74.42
62978;BME280;49073;42.352;23.808;2022-10-13T09:28:48;95381.63;;;13.71;73.13
62978;BME280;49073;42.352;23.808;2022-10-13T09:31:49;95375.84;;;13.88;73.11
62978;BME280;49073;42.352;23.808;2022-10-13T09:34:50;95379.34;;;14.16;72.62
62978;BME280;49073;42.352;23.808;2022-10-13T09:38:26;95385.22;;;14.25;71.67
62978;BME280;49073;42.352;23.808;2022-10-13T09:41:25;95380.34;;;14.58;71.29
62978;BME280;49073;42.352;23.808;2022-10-13T09:44:28;95374.75;;;14.43;69.28
62978;BME280;49073;42.352;23.808;2022-10-13T09:47:30;95365.09;;;14.65;70.36
62978;BME280;49073;42.352;23.808;2022-10-13T09:50:33;95355.06;;;14.86;70.09
62978;BME280;49073;42.352;23.808;2022-10-13T09:53:37;95349.91;;;15.04;68.64
62978;BME280;49073;42.352;23.808;2022-10-13T09:56:44;95350.31;;;15.06;68.22
62978;BME280;49073;42.352;23.808;2022-10-13T09:59:49;95334.03;;;15.22;68.46
62978;BME280;49073;42.352;23.808;2022-10-13T10:06:02;95322.81;;;15.50;66.30
62978;BME280;49073;42.352;23.808;2022-10-13T10:09:21;95319.31;;;15.46;66.71
62978;BME280;49073;42.352;23.808;2022-10-13T10:12:29;95315.50;;;15.51;65.67
62978;BME280;49073;42.352;23.808;2022-10-13T10:15:54;95309.63;;;15.79;65.30
62978;BME280;49073;42.352;23.808;2022-10-13T10:19:30;95317.66;;;15.76;64.06
62978;BME280;49073;42.352;23.808;2022-10-13T10:23:02;95310.75;;;15.78;66.02
62978;BME280;49073;42.352;23.808;2022-10-13T10:26:55;95310.16;;;15.92;64.03
62978;BME280;49073;42.352;23.808;2022-10-13T10:29:48;95301.03;;;16.04;64.20
62978;BME280;49073;42.352;23.808;2022-10-13T10:32:56;95297.09;;;15.91;63.89
62978;BME280;49073;42.352;23.808;2022-10-13T10:36:12;95282.91;;;15.94;63.52
62978;BME280;49073;42.352;23.808;2022-10-13T10:46:14;95277.47;;;16.46;60.59
62978;BME280;49073;42.352;23.808;2022-10-13T10:49:29;95272.53;;;16.59;59.75
62978;BME280;49073;42.352;23.808;2022-10-13T10:55:53;95274.13;;;16.71;59.00
62978;BME280;49073;42.352;23.808;2022-10-13T10:59:48;95271.50;;;16.89;58.81
62978;BME280;49073;42.352;23.808;2022-10-13T11:02:59;95263.53;;;17.22;59.70
62978;BME280;49073;42.352;23.808;2022-10-13T11:06:20;95258.94;;;17.29;58.78
62978;BME280;49073;42.352;23.808;2022-10-13T11:13:05;95245.09;;;17.27;59.29
62978;BME280;49073;42.352;23.808;2022-10-13T11:19:27;95228.91;;;17.24;58.54
62978;BME280;49073;42.352;23.808;2022-10-13T11:22:29;95226.22;;;17.31;58.27
62978;BME280;49073;42.352;23.808;2022-10-13T11:25:48;95217.78;;;17.43;57.73
62978;BME280;49073;42.352;23.808;2022-10-13T11:28:48;95215.84;;;17.66;58.24
62978;BME280;49073;42.352;23.808;2022-10-13T11:31:52;95209.69;;;17.54;58.17
62978;BME280;49073;42.352;23.808;2022-10-13T11:38:28;95205.81;;;18.06;57.66
62978;BME280;49073;42.352;23.808;2022-10-13T11:41:39;95202.38;;;17.77;56.77
62978;BME280;49073;42.352;23.808;2022-10-13T11:45:09;95200.47;;;17.59;56.76
62978;BME280;49073;42.352;23.808;2022-10-13T11:55:10;95195.44;;;17.36;56.87
62978;BME280;49073;42.352;23.808;2022-10-13T12:01:21;95189.28;;;17.10;56.37
62978;BME280;49073;42.352;23.808;2022-10-13T12:04:23;95193.09;;;17.01;55.46
62978;BME280;49073;42.352;23.808;2022-10-13T12:07:24;95183.50;;;17.19;55.96
62978;BME280;49073;42.352;23.808;2022-10-13T12:10:35;95183.81;;;16.95;55.13
62978;BME280;49073;42.352;23.808;2022-10-13T12:13:37;95173.50;;;17.23;56.28
62978;BME280;49073;42.352;23.808;2022-10-13T12:16:51;95184.28;;;17.23;55.40
62978;BME280;49073;42.352;23.808;2022-10-13T12:19:55;95184.28;;;17.52;54.54
62978;BME280;49073;42.352;23.808;2022-10-13T12:22:56;95179.63;;;17.78;53.22
62978;BME280;49073;42.352;23.808;2022-10-13T12:25:57;95183.09;;;17.93;52.46
62978;BME280;49073;42.352;23.808;2022-10-13T12:29:02;95174.22;;;17.85;51.44
62978;BME280;49073;42.352;23.808;2022-10-13T12:32:17;95166.13;;;17.99;51.59
62978;BME280;49073;42.352;23.808;2022-10-13T12:35:28;95166.50;;;18.16;51.27
62978;BME280;49073;42.352;23.808;2022-10-13T12:38:29;95170.34;;;18.15;51.50
62978;BME280;49073;42.352;23.808;2022-10-13T12:41:34;95177.66;;;18.14;51.32
62978;BME280;49073;42.352;23.808;2022-10-13T12:44:35;95172.66;;;18.20;50.55
62978;BME280;49073;42.352;23.808;2022-10-13T12:47:37;95171.91;;;17.98;50.17
62978;BME280;49073;42.352;23.808;2022-10-13T12:50:39;95157.34;;;17.70;50.54
62978;BME280;49073;42.352;23.808;2022-10-13T12:53:40;95160.38;;;17.94;51.33
62978;BME280;49073;42.352;23.808;2022-10-13T12:56:41;95155.75;;;18.01;50.34
62978;BME280;49073;42.352;23.808;2022-10-13T12:59:42;95161.13;;;17.98;50.98
62978;BME280;49073;42.352;23.808;2022-10-13T13:02:56;95163.84;;;17.91;50.00
62978;BME280;49073;42.352;23.808;2022-10-13T13:06:18;95147.28;;;17.88;50.57
62978;BME280;49073;42.352;23.808;2022-10-13T13:09:28;95139.19;;;17.88;49.62
62978;BME280;49073;42.352;23.808;2022-10-13T13:12:29;95139.16;;;17.92;50.36
62978;BME280;49073;42.352;23.808;2022-10-13T13:15:33;95136.53;;;17.67;50.00
62978;BME280;49073;42.352;23.808;2022-10-13T13:18:45;95141.16;;;17.63;51.83
62978;BME280;49073;42.352;23.808;2022-10-13T13:21:47;95135.78;;;17.23;50.75
62978;BME280;49073;42.352;23.808;2022-10-13T13:24:51;95143.88;;;17.12;52.17
62978;BME280;49073;42.352;23.808;2022-10-13T13:27:52;95146.94;;;17.07;51.63
62978;BME280;49073;42.352;23.808;2022-10-13T13:30:52;95143.84;;;16.97;52.45
62978;BME280;49073;42.352;23.808;2022-10-13T13:33:53;95148.81;;;16.81;51.53
62978;BME280;49073;42.352;23.808;2022-10-13T13:36:53;95146.88;;;16.74;52.92
62978;BME280;49073;42.352;23.808;2022-10-13T13:39:54;95147.28;;;16.83;52.42
62978;BME280;49073;42.352;23.808;2022-10-13T13:42:54;95156.53;;;16.82;53.88
62978;BME280;49073;42.352;23.808;2022-10-13T13:45:55;95151.78;;;16.47;54.63
62978;BME280;49073;42.352;23.808;2022-10-13T13:48:56;95152.53;;;16.36;54.99
62978;BME280;49073;42.352;23.808;2022-10-13T13:51:56;95161.75;;;16.35;54.94
62978;BME280;49073;42.352;23.808;2022-10-13T13:54:57;95155.19;;;16.29;54.95
62978;BME280;49073;42.352;23.808;2022-10-13T13:57:57;95144.81;;;16.27;56.04
62978;BME280;49073;42.352;23.808;2022-10-13T14:00:58;95142.09;;;16.24;55.35
62978;BME280;49073;42.352;23.808;2022-10-13T14:03:59;95131.69;;;16.11;55.58
62978;BME280;49073;42.352;23.808;2022-10-13T14:07:00;95132.03;;;16.03;56.18
62978;BME280;49073;42.352;23.808;2022-10-13T14:10:02;95140.81;;;15.92;56.61
62978;BME280;49073;42.352;23.808;2022-10-13T14:13:02;95149.53;;;15.78;56.06
62978;BME280;49073;42.352;23.808;2022-10-13T14:16:03;95142.72;;;15.88;57.49
62978;BME280;49073;42.352;23.808;2022-10-13T14:19:04;95141.84;;;15.77;57.18
62978;BME280;49073;42.352;23.808;2022-10-13T14:22:04;95126.41;;;15.63;56.96
62978;BME280;49073;42.352;23.808;2022-10-13T14:25:06;95137.47;;;15.54;57.54
62978;BME280;49073;42.352;23.808;2022-10-13T14:28:07;95138.22;;;15.51;57.02
62978;BME280;49073;42.352;23.808;2022-10-13T14:31:08;95129.81;;;15.52;57.98
62978;BME280;49073;42.352;23.808;2022-10-13T14:34:09;95138.97;;;15.48;58.20
62978;BME280;49073;42.352;23.808;2022-10-13T14:37:09;95133.59;;;15.48;57.92
62978;BME280;49073;42.352;23.808;2022-10-13T14:40:10;95138.53;;;15.38;58.49
62978;BME280;49073;42.352;23.808;2022-10-13T14:43:10;95130.78;;;15.30;59.40
62978;BME280;49073;42.352;23.808;2022-10-13T14:46:11;95134.66;;;15.32;58.93
62978;BME280;49073;42.352;23.808;2022-10-13T14:49:12;95132.25;;;15.20;58.80
62978;BME280;49073;42.352;23.808;2022-10-13T14:52:12;95133.34;;;15.11;59.77
62978;BME280;49073;42.352;23.808;2022-10-13T14:55:13;95141.31;;;15.01;59.72
62978;BME280;49073;42.352;23.808;2022-10-13T14:58:14;95135.59;;;15.06;60.32
62978;BME280;49073;42.352;23.808;2022-10-13T15:01:15;95141.38;;;15.08;59.99
62978;BME280;49073;42.352;23.808;2022-10-13T15:04:15;95148.25;;;15.05;60.25
62978;BME280;49073;42.352;23.808;2022-10-13T15:07:16;95148.66;;;15.07;60.76
62978;BME280;49073;42.352;23.808;2022-10-13T15:10:17;95145.47;;;14.94;61.13
62978;BME280;49073;42.352;23.808;2022-10-13T15:13:17;95143.13;;;14.89;61.05
62978;BME280;49073;42.352;23.808;2022-10-13T15:16:23;95149.97;;;14.83;61.22
62978;BME280;49073;42.352;23.808;2022-10-13T15:19:24;95155.34;;;14.87;61.71
62978;BME280;49073;42.352;23.808;2022-10-13T15:22:25;95150.84;;;14.94;62.08
62978;BME280;49073;42.352;23.808;2022-10-13T15:25:25;95152.31;;;14.88;62.03
62978;BME280;49073;42.352;23.808;2022-10-13T15:28:34;95153.06;;;14.85;62.08
62978;BME280;49073;42.352;23.808;2022-10-13T15:31:35;95153.78;;;14.82;62.33
62978;BME280;49073;42.352;23.808;2022-10-13T15:34:39;95150.91;;;14.67;63.31
62978;BME280;49073;42.352;23.808;2022-10-13T15:37:39;95155.94;;;14.69;63.81
62978;BME280;49073;42.352;23.808;2022-10-13T15:40:40;95145.69;;;14.78;63.89
62978;BME280;49073;42.352;23.808;2022-10-13T15:43:41;95138.91;;;14.88;63.34
62978;BME280;49073;42.352;23.808;2022-10-13T15:46:43;95131.59;;;14.85;63.40
62978;BME280;49073;42.352;23.808;2022-10-13T15:49:43;95142.31;;;14.85;63.62
62978;BME280;49073;42.352;23.808;2022-10-13T15:52:44;95143.41;;;14.77;64.39
62978;BME280;49073;42.352;23.808;2022-10-13T15:55:46;95149.19;;;14.82;64.37
62978;BME280;49073;42.352;23.808;2022-10-13T15:58:47;95142.31;;;14.85;64.45
62978;BME280;49073;42.352;23.808;2022-10-13T16:01:48;95148.75;;;14.77;65.18
62978;BME280;49073;42.352;23.808;2022-10-13T16:04:49;95145.97;;;14.69;65.83
62978;BME280;49073;42.352;23.808;2022-10-13T16:07:50;95148.06;;;14.49;66.52
62978;BME280;49073;42.352;23.808;2022-10-13T16:10:51;95145.75;;;14.48;66.50
62978;BME280;49073;42.352;23.808;2022-10-13T16:13:51;95138.84;;;14.47;66.62
62978;BME280;49073;42.352;23.808;2022-10-13T16:16:52;95149.44;;;14.36;67.06
62978;BME280;49073;42.352;23.808;2022-10-13T16:19:53;95151.78;;;14.41;67.58
62978;BME280;49073;42.352;23.808;2022-10-13T16:22:53;95157.03;;;14.30;68.07
62978;BME280;49073;42.352;23.808;2022-10-13T16:25:54;95158.09;;;14.22;68.87
62978;BME280;49073;42.352;23.808;2022-10-13T16:28:55;95155.41;;;14.22;69.03
62978;BME280;49073;42.352;23.808;2022-10-13T16:31:56;95163.06;;;14.20;68.97
62978;BME280;49073;42.352;23.808;2022-10-13T16:34:56;95155.94;;;14.04;69.14
62978;BME280;49073;42.352;23.808;2022-10-13T16:37:57;95154.47;;;14.07;68.82
62978;BME280;49073;42.352;23.808;2022-10-13T16:40:57;95156.25;;;13.95;69.22
62978;BME280;49073;42.352;23.808;2022-10-13T16:43:58;95153.59;;;13.99;69.51
62978;BME280;49073;42.352;23.808;2022-10-13T16:46:59;95153.81;;;13.87;69.90
62978;BME280;49073;42.352;23.808;2022-10-13T16:50:05;95147.56;;;13.79;70.09
62978;BME280;49073;42.352;23.808;2022-10-13T16:53:08;95161.34;;;13.77;70.29
62978;BME280;49073;42.352;23.808;2022-10-13T16:56:10;95160.44;;;13.66;71.15
62978;BME280;49073;42.352;23.808;2022-10-13T16:59:10;95169.22;;;13.66;71.06
62978;BME280;49073;42.352;23.808;2022-10-13T17:02:14;95167.44;;;13.74;71.41
62978;BME280;49073;42.352;23.808;2022-10-13T17:05:14;95173.28;;;13.84;71.65
62978;BME280;49073;42.352;23.808;2022-10-13T17:08:15;95165.56;;;13.78;70.47